Terminal Aerodrome Forecast
Issued by NWS Billings, MT

Home | Current Version | Previous Version | Graphics & Text | Print | Product List | Glossary Off
Versions: 1 2 3 4 5 6 7 8 9 10 11 12 13 14 15 16 17 18 19 20 21 22 23 24 25 26

997
FTUS45 KBYZ 171732
TAFMLS
TAF
KMLS 171732Z 1718/1818 VRB05KT P6SM BKN100
     FM172000 29013KT P6SM VCSH BKN050
     FM180200 29012G19KT P6SM SCT050
     FM180800 29010KT P6SM BKN100=

USA.gov is the U.S. government's official web portal to all federal, state and local government web resources and services.